Terminal Aerodrome Forecast
Issued by NWS Shreveport, LA

Home | Current Version | Previous Version | Text Only | Print | Product List | Glossary On
Versions: 1 2 3 4 5 6 7 8 9 10 11 12 13 14 15 16
000
FTUS44 KSHV 262349
TAFELD
TAF
KELD 262349Z 2700/2724 00000KT P6SM VCTS SCT040CB
     FM270100 07003KT P6SM FEW045 SCT100 BKN250
     FM270500 07003KT P6SM SCT250
      TEMPO 2710/2714 4SM BR BKN010
     FM271400 08003KT P6SM SCT020=

USA.gov is the U.S. government's official web portal to all federal, state and local government web resources and services.